Time;durP1;ratioP1;P1;durP2;ratioP2;P2;SDS_P1;SDS_P2;PMS_P1;PMS_P2;Temp;Humidity;BMP_temperature;BMP_pressure;BME280_temperature;BME280_humidity;BME280_pressure;Samples;Min_cycle;Max_cycle;Signal;HPM_P1;HPM_P2
2022/03/25 00:00:40;;;;;;;77.78;37.63;;;;;;;;;;5025345;28;20033;-75
2022/03/25 00:03:07;;;;;;;82.75;38.95;;;;;;;;;;5021892;28;20099;-73
2022/03/25 00:05:33;;;;;;;88.88;41.33;;;;;;;;;;5007590;28;20021;-74
2022/03/25 00:07:59;;;;;;;103.88;41.80;;;;;;;;;;5025681;28;20048;-74
2022/03/25 00:10:25;;;;;;;100.82;44.20;;;;;;;;;;5022689;28;20030;-74
2022/03/25 00:12:52;;;;;;;109.80;47.53;;;;;;;;;;5023281;28;20797;-73
2022/03/25 00:15:18;;;;;;;127.45;54.60;;;;;;;;;;5025389;28;20490;-72
2022/03/25 00:17:45;;;;;;;135.57;57.40;;;;;;;;;;5025243;28;20037;-73
2022/03/25 00:20:11;;;;;;;157.77;61.33;;;;;;;;;;5019420;28;20147;-75
2022/03/25 00:22:37;;;;;;;138.85;59.47;;;;;;;;;;5027468;28;20105;-75
2022/03/25 00:25:05;;;;;;;149.88;60.92;;;;;;;;;;5025421;28;20571;-75
2022/03/25 00:27:32;;;;;;;158.40;63.28;;;;;;;;;;5028908;28;20075;-75
2022/03/25 00:29:59;;;;;;;150.32;64.30;;;;;;;;;;5027409;28;20171;-75
2022/03/25 00:32:25;;;;;;;167.68;67.85;;;;;;;;;;5028988;28;20037;-75
2022/03/25 00:34:52;;;;;;;167.88;64.28;;;;;;;;;;5009450;28;20052;-74
2022/03/25 00:37:18;;;;;;;160.77;64.95;;;;;;;;;;5025916;28;20029;-74
2022/03/25 00:39:44;;;;;;;159.68;63.03;;;;;;;;;;5030549;28;20096;-75
2022/03/25 00:42:12;;;;;;;160.43;67.25;;;;;;;;;;5027053;28;20038;-74
2022/03/25 00:44:38;;;;;;;169.52;70.45;;;;;;;;;;5027306;28;20033;-74
2022/03/25 00:47:04;;;;;;;169.32;67.35;;;;;;;;;;5013294;28;20033;-74
2022/03/25 00:49:30;;;;;;;176.50;68.18;;;;;;;;;;5027439;28;20064;-73
2022/03/25 00:51:58;;;;;;;162.27;64.13;;;;;;;;;;5029854;28;20030;-73
2022/03/25 00:54:24;;;;;;;171.07;64.10;;;;;;;;;;5028054;28;20034;-73
2022/03/25 00:56:50;;;;;;;168.85;63.53;;;;;;;;;;5027373;28;20038;-74
2022/03/25 00:59:16;;;;;;;159.90;64.00;;;;;;;;;;5028531;28;20068;-73
2022/03/25 01:01:42;;;;;;;166.68;64.13;;;;;;;;;;5026607;28;20072;-74
2022/03/25 01:04:08;;;;;;;171.98;63.50;;;;;;;;;;5028459;28;20061;-73
2022/03/25 01:06:35;;;;;;;177.52;65.90;;;;;;;;;;5029707;28;20037;-74
2022/03/25 01:09:01;;;;;;;180.10;66.88;;;;;;;;;;5011428;28;20033;-74
2022/03/25 01:11:27;;;;;;;192.48;68.72;;;;;;;;;;5028233;28;20448;-74
2022/03/25 01:13:54;;;;;;;193.40;67.15;;;;;;;;;;5029049;28;20083;-76
2022/03/25 01:16:20;;;;;;;184.18;65.82;;;;;;;;;;5028531;28;20029;-74
2022/03/25 01:18:46;;;;;;;193.52;65.28;;;;;;;;;;5028628;28;20018;-74
2022/03/25 01:21:12;;;;;;;198.65;67.60;;;;;;;;;;5026942;28;20093;-73
2022/03/25 01:23:38;;;;;;;191.38;66.43;;;;;;;;;;5023846;28;20152;-73
2022/03/25 01:26:04;;;;;;;206.73;68.53;;;;;;;;;;5028662;28;20056;-74
2022/03/25 01:28:34;;;;;;;212.68;68.05;;;;;;;;;;5026801;28;20141;-74
2022/03/25 01:31:03;;;;;;;193.35;65.18;;;;;;;;;;5028185;28;20068;-74
2022/03/25 01:33:30;;;;;;;189.15;64.65;;;;;;;;;;5026426;28;20545;-72
2022/03/25 01:35:56;;;;;;;210.10;66.05;;;;;;;;;;5027148;28;20046;-73
2022/03/25 01:38:22;;;;;;;203.13;65.72;;;;;;;;;;5026362;28;20025;-73
2022/03/25 01:40:48;;;;;;;203.82;66.65;;;;;;;;;;5027993;28;20083;-73
2022/03/25 01:43:14;;;;;;;201.77;64.60;;;;;;;;;;5027084;28;20033;-73
2022/03/25 01:45:40;;;;;;;209.52;67.32;;;;;;;;;;5028432;28;20029;-74
2022/03/25 01:48:11;;;;;;;230.43;70.13;;;;;;;;;;5026649;28;20036;-74
2022/03/25 01:50:38;;;;;;;170.75;52.15;;;;;;;;;;5027703;28;20024;-74
2022/03/25 01:53:09;;;;;;;226.30;70.28;;;;;;;;;;5028558;28;20088;-73
2022/03/25 01:55:39;;;;;;;246.57;75.03;;;;;;;;;;5026440;28;20106;-73
2022/03/25 01:58:07;;;;;;;271.58;78.55;;;;;;;;;;5027272;28;20123;-72
2022/03/25 02:00:35;;;;;;;271.23;83.20;;;;;;;;;;5028201;28;20040;-72
2022/03/25 02:03:01;;;;;;;273.95;81.88;;;;;;;;;;5025326;28;20454;-73
2022/03/25 02:05:27;;;;;;;276.75;84.65;;;;;;;;;;5026738;28;20474;-73
2022/03/25 02:07:53;;;;;;;284.15;85.32;;;;;;;;;;5027903;28;20121;-72
2022/03/25 02:10:19;;;;;;;295.90;84.85;;;;;;;;;;5026863;28;20044;-73
2022/03/25 02:12:45;;;;;;;300.27;87.32;;;;;;;;;;5008318;28;20034;-73
2022/03/25 02:15:12;;;;;;;295.33;84.13;;;;;;;;;;5027939;28;20091;-74
2022/03/25 02:17:38;;;;;;;320.42;90.07;;;;;;;;;;5026509;28;20033;-73
2022/03/25 02:20:08;;;;;;;288.27;86.75;;;;;;;;;;5026594;28;20033;-74
2022/03/25 02:22:38;;;;;;;297.13;84.95;;;;;;;;;;5024847;28;20040;-74
2022/03/25 02:25:08;;;;;;;292.38;84.57;;;;;;;;;;5026301;28;20505;-74
2022/03/25 02:27:36;;;;;;;299.30;84.75;;;;;;;;;;5025585;28;20029;-74
2022/03/25 02:30:02;;;;;;;288.27;81.18;;;;;;;;;;5026136;28;20060;-74
2022/03/25 02:32:28;;;;;;;273.95;78.47;;;;;;;;;;5021375;28;20026;-74
2022/03/25 02:34:54;;;;;;;243.13;73.65;;;;;;;;;;5026028;28;20088;-74
2022/03/25 02:37:24;;;;;;;261.88;77.28;;;;;;;;;;5025010;28;20049;-74
2022/03/25 02:39:50;;;;;;;306.77;85.03;;;;;;;;;;5026240;28;20036;-73
2022/03/25 02:42:16;;;;;;;301.63;82.80;;;;;;;;;;5026430;28;20055;-74
2022/03/25 02:44:42;;;;;;;290.95;81.90;;;;;;;;;;5026634;28;20030;-73
2022/03/25 02:47:08;;;;;;;299.63;81.35;;;;;;;;;;5024767;28;20029;-74
2022/03/25 02:49:34;;;;;;;282.48;80.20;;;;;;;;;;5026894;28;20557;-73
2022/03/25 02:52:00;;;;;;;274.63;75.78;;;;;;;;;;5025624;28;20048;-73
2022/03/25 02:54:26;;;;;;;249.23;75.78;;;;;;;;;;5025151;28;20479;-74
2022/03/25 02:56:52;;;;;;;249.25;74.28;;;;;;;;;;5025766;28;20467;-74
2022/03/25 02:59:18;;;;;;;263.88;73.32;;;;;;;;;;5024076;28;20029;-73
2022/03/25 03:01:44;;;;;;;225.55;68.05;;;;;;;;;;5023299;28;20037;-73
2022/03/25 03:04:11;;;;;;;279.58;82.03;;;;;;;;;;5024908;28;20029;-73
2022/03/25 03:06:37;;;;;;;323.15;92.28;;;;;;;;;;5019931;28;20025;-73
2022/03/25 03:09:03;;;;;;;306.92;84.68;;;;;;;;;;5021496;28;20030;-73
2022/03/25 03:11:29;;;;;;;263.42;75.65;;;;;;;;;;5023881;28;20041;-73
2022/03/25 03:13:56;;;;;;;276.13;74.82;;;;;;;;;;5023728;28;20033;-73
2022/03/25 03:16:22;;;;;;;264.27;72.50;;;;;;;;;;5024621;28;20028;-72
2022/03/25 03:18:50;;;;;;;301.60;80.05;;;;;;;;;;5025451;28;20065;-73
2022/03/25 03:21:16;;;;;;;299.63;82.25;;;;;;;;;;5024406;28;20384;-73
2022/03/25 03:23:42;;;;;;;270.42;76.95;;;;;;;;;;5022586;28;20198;-73
2022/03/25 03:26:09;;;;;;;271.90;75.07;;;;;;;;;;5021434;28;20124;-73
2022/03/25 03:28:35;;;;;;;312.40;85.95;;;;;;;;;;5025146;28;20017;-73
2022/03/25 03:31:01;;;;;;;288.38;80.03;;;;;;;;;;5024475;28;20072;-73
2022/03/25 03:33:27;;;;;;;294.63;81.50;;;;;;;;;;5024458;28;20087;-73
2022/03/25 03:35:53;;;;;;;259.92;76.10;;;;;;;;;;5023574;28;20211;-73
2022/03/25 03:38:19;;;;;;;264.95;76.18;;;;;;;;;;5024825;28;20021;-73
2022/03/25 03:40:45;;;;;;;262.55;75.25;;;;;;;;;;5025472;28;20526;-72
2022/03/25 03:43:11;;;;;;;242.95;69.65;;;;;;;;;;5025007;28;20026;-72
2022/03/25 03:45:37;;;;;;;199.48;58.78;;;;;;;;;;5025029;28;20032;-73
2022/03/25 03:48:04;;;;;;;148.23;42.92;;;;;;;;;;5027065;28;20043;-73
2022/03/25 03:50:30;;;;;;;141.85;41.25;;;;;;;;;;5024951;28;20164;-73
2022/03/25 03:52:56;;;;;;;158.18;43.33;;;;;;;;;;5009336;28;20494;-72
2022/03/25 03:55:22;;;;;;;134.52;39.90;;;;;;;;;;5027806;28;20032;-74
2022/03/25 03:57:49;;;;;;;122.10;38.85;;;;;;;;;;5027502;28;20025;-73
2022/03/25 04:00:15;;;;;;;127.05;38.25;;;;;;;;;;5030114;28;20025;-73
2022/03/25 04:02:42;;;;;;;125.57;39.83;;;;;;;;;;5027950;28;20029;-76
2022/03/25 04:05:10;;;;;;;143.73;44.53;;;;;;;;;;5030060;28;20028;-74
2022/03/25 04:07:40;;;;;;;171.85;51.47;;;;;;;;;;5029957;28;20037;-74
2022/03/25 04:10:06;;;;;;;170.20;50.42;;;;;;;;;;5026759;28;20064;-74
2022/03/25 04:12:32;;;;;;;173.50;53.42;;;;;;;;;;5026461;28;21603;-74
2022/03/25 04:14:58;;;;;;;203.88;57.45;;;;;;;;;;5027605;28;20037;-73
2022/03/25 04:17:25;;;;;;;197.60;59.03;;;;;;;;;;5026752;28;20108;-74
2022/03/25 04:19:52;;;;;;;225.73;60.35;;;;;;;;;;5026332;28;20076;-74
2022/03/25 04:22:18;;;;;;;224.60;60.47;;;;;;;;;;5024230;28;20491;-74
2022/03/25 04:24:44;;;;;;;276.90;72.63;;;;;;;;;;5025927;28;20437;-74
2022/03/25 04:27:10;;;;;;;319.98;84.03;;;;;;;;;;5026544;28;20041;-73
2022/03/25 04:29:36;;;;;;;291.23;78.25;;;;;;;;;;5025461;28;20520;-73
2022/03/25 04:32:02;;;;;;;348.35;86.82;;;;;;;;;;5026656;28;20065;-73
2022/03/25 04:34:28;;;;;;;308.95;81.22;;;;;;;;;;5029063;28;20073;-73
2022/03/25 04:36:54;;;;;;;279.55;78.30;;;;;;;;;;5028704;28;20151;-74
2022/03/25 04:39:20;;;;;;;304.67;81.13;;;;;;;;;;5030996;28;20095;-74
2022/03/25 04:41:47;;;;;;;272.80;74.80;;;;;;;;;;5025979;28;20060;-74
2022/03/25 04:44:14;;;;;;;282.70;77.78;;;;;;;;;;5031121;28;20041;-75
2022/03/25 04:46:40;;;;;;;259.17;75.65;;;;;;;;;;5026172;28;20327;-74
2022/03/25 04:49:08;;;;;;;269.25;74.15;;;;;;;;;;5027293;28;20471;-74
2022/03/25 04:51:34;;;;;;;236.00;65.05;;;;;;;;;;5030536;28;20099;-73
2022/03/25 04:54:00;;;;;;;216.70;62.00;;;;;;;;;;5030909;28;20048;-73
2022/03/25 04:56:26;;;;;;;204.82;57.05;;;;;;;;;;5030274;28;20019;-73
2022/03/25 04:58:52;;;;;;;208.68;59.55;;;;;;;;;;5029228;28;20033;-73
2022/03/25 05:01:18;;;;;;;215.18;61.75;;;;;;;;;;5029685;28;20029;-73
2022/03/25 05:03:44;;;;;;;226.40;62.13;;;;;;;;;;5029184;28;20047;-73
2022/03/25 05:06:10;;;;;;;233.77;63.53;;;;;;;;;;5027560;28;20133;-73
2022/03/25 05:08:36;;;;;;;306.45;78.05;;;;;;;;;;5029081;28;20117;-74
2022/03/25 05:11:02;;;;;;;265.92;67.13;;;;;;;;;;5028845;28;20037;-72
2022/03/25 05:13:28;;;;;;;242.93;64.47;;;;;;;;;;5028887;28;20083;-72
2022/03/25 05:15:55;;;;;;;284.17;72.07;;;;;;;;;;5029121;28;20037;-73
2022/03/25 05:18:22;;;;;;;271.55;74.60;;;;;;;;;;5027178;28;20026;-73
2022/03/25 05:20:48;;;;;;;303.20;76.72;;;;;;;;;;5028191;28;20059;-74
2022/03/25 05:23:15;;;;;;;291.42;73.55;;;;;;;;;;5011717;28;20052;-73
2022/03/25 05:25:41;;;;;;;233.73;65.15;;;;;;;;;;5029019;28;20044;-73
2022/03/25 05:28:07;;;;;;;221.25;61.30;;;;;;;;;;5026105;28;20021;-74
2022/03/25 05:30:35;;;;;;;195.10;55.20;;;;;;;;;;5027642;28;20082;-73
2022/03/25 05:33:01;;;;;;;200.00;58.00;;;;;;;;;;5022373;28;20025;-73
2022/03/25 05:35:28;;;;;;;201.48;56.50;;;;;;;;;;5027621;28;20057;-73
2022/03/25 05:37:54;;;;;;;184.90;53.67;;;;;;;;;;5022290;28;20069;-74
2022/03/25 05:40:21;;;;;;;180.13;52.13;;;;;;;;;;5025994;28;20022;-75
2022/03/25 05:42:48;;;;;;;196.02;57.30;;;;;;;;;;5026125;28;20044;-74
2022/03/25 05:45:14;;;;;;;182.90;52.50;;;;;;;;;;5028472;28;20028;-74
2022/03/25 05:47:41;;;;;;;161.32;50.28;;;;;;;;;;5026688;28;20061;-74
2022/03/25 05:50:08;;;;;;;151.20;47.90;;;;;;;;;;5026472;28;20038;-73
2022/03/25 05:52:34;;;;;;;155.82;48.45;;;;;;;;;;5026393;28;20478;-73
2022/03/25 05:55:01;;;;;;;252.32;54.50;;;;;;;;;;5027846;28;20115;-73
2022/03/25 05:57:27;;;;;;;170.80;50.13;;;;;;;;;;5025904;28;20119;-73
2022/03/25 05:59:53;;;;;;;156.88;48.47;;;;;;;;;;5023549;28;20026;-74
2022/03/25 06:02:19;;;;;;;150.43;47.42;;;;;;;;;;5026338;28;20097;-74
2022/03/25 06:04:46;;;;;;;133.02;45.50;;;;;;;;;;5027267;28;20120;-73
2022/03/25 06:07:12;;;;;;;157.55;52.30;;;;;;;;;;5025234;28;20026;-74
2022/03/25 06:09:38;;;;;;;169.35;54.28;;;;;;;;;;5025517;28;20025;-73
2022/03/25 06:12:06;;;;;;;167.52;55.05;;;;;;;;;;5028029;28;20056;-73
2022/03/25 06:14:32;;;;;;;198.40;64.05;;;;;;;;;;5027803;28;20037;-73
2022/03/25 06:16:58;;;;;;;178.25;57.22;;;;;;;;;;5027073;28;20037;-73
2022/03/25 06:19:24;;;;;;;246.35;59.85;;;;;;;;;;5026771;28;20037;-73
2022/03/25 06:21:50;;;;;;;190.77;55.42;;;;;;;;;;5025282;28;20203;-74
2022/03/25 06:24:17;;;;;;;154.20;52.33;;;;;;;;;;5028196;28;20025;-74
2022/03/25 06:26:43;;;;;;;142.23;53.10;;;;;;;;;;5026346;28;20042;-74
2022/03/25 06:29:09;;;;;;;218.18;63.92;;;;;;;;;;5025003;28;20029;-74
2022/03/25 06:31:36;;;;;;;189.05;60.30;;;;;;;;;;5026359;28;20482;-73
2022/03/25 06:34:03;;;;;;;204.90;62.65;;;;;;;;;;5026352;28;20029;-74
2022/03/25 06:36:30;;;;;;;198.25;64.72;;;;;;;;;;5024852;28;20041;-74
2022/03/25 06:38:56;;;;;;;192.35;63.55;;;;;;;;;;5027534;28;20021;-74
2022/03/25 06:41:22;;;;;;;165.98;61.63;;;;;;;;;;5027879;28;20074;-73
2022/03/25 06:43:49;;;;;;;198.23;70.22;;;;;;;;;;5026136;28;20033;-72
2022/03/25 06:46:17;;;;;;;181.35;71.05;;;;;;;;;;5025253;28;20037;-74
2022/03/25 06:48:43;;;;;;;210.85;82.35;;;;;;;;;;5027779;28;20045;-74
2022/03/25 06:51:10;;;;;;;182.38;77.75;;;;;;;;;;5025100;28;20033;-74
2022/03/25 06:53:36;;;;;;;182.93;79.15;;;;;;;;;;5027278;28;20108;-74
2022/03/25 06:56:02;;;;;;;190.75;78.15;;;;;;;;;;5026374;28;20494;-74
2022/03/25 06:58:29;;;;;;;175.75;79.50;;;;;;;;;;5024492;28;20017;-73
2022/03/25 07:00:55;;;;;;;176.32;79.15;;;;;;;;;;5021101;28;20091;-72
2022/03/25 07:03:21;;;;;;;160.20;74.72;;;;;;;;;;5024590;28;20050;-73
2022/03/25 07:05:47;;;;;;;153.30;78.20;;;;;;;;;;5026020;28;20056;-73
2022/03/25 07:08:13;;;;;;;157.80;77.72;;;;;;;;;;5027283;28;20363;-73
2022/03/25 07:10:39;;;;;;;159.32;78.90;;;;;;;;;;5027152;28;20533;-73
2022/03/25 07:13:06;;;;;;;156.85;79.32;;;;;;;;;;5025272;28;20566;-73
2022/03/25 07:15:32;;;;;;;159.20;78.05;;;;;;;;;;5025748;28;20065;-72
2022/03/25 07:17:58;;;;;;;154.18;76.68;;;;;;;;;;5025655;28;20084;-72
2022/03/25 07:20:26;;;;;;;155.38;78.95;;;;;;;;;;5010255;28;20042;-73
2022/03/25 07:22:53;;;;;;;144.52;77.18;;;;;;;;;;5025807;28;20026;-72
2022/03/25 07:25:19;;;;;;;144.13;76.43;;;;;;;;;;5028764;28;20056;-73
2022/03/25 07:27:46;;;;;;;144.68;74.75;;;;;;;;;;5028405;28;20025;-73
2022/03/25 07:30:13;;;;;;;145.95;74.40;;;;;;;;;;5025885;28;20136;-73
2022/03/25 07:32:39;;;;;;;143.68;73.88;;;;;;;;;;5027008;28;20079;-74
2022/03/25 07:35:06;;;;;;;143.57;75.00;;;;;;;;;;5017439;28;20053;-74
2022/03/25 07:37:32;;;;;;;142.07;74.63;;;;;;;;;;5026041;28;20033;-75
2022/03/25 07:39:58;;;;;;;141.13;72.95;;;;;;;;;;5024441;28;20057;-74
2022/03/25 07:42:25;;;;;;;141.93;72.55;;;;;;;;;;5024534;28;20098;-73
2022/03/25 07:44:51;;;;;;;135.57;71.15;;;;;;;;;;5025510;28;20506;-74
2022/03/25 07:47:17;;;;;;;130.82;71.05;;;;;;;;;;5028084;28;20072;-75
2022/03/25 07:49:43;;;;;;;132.52;69.57;;;;;;;;;;5027038;28;20045;-74
2022/03/25 07:52:10;;;;;;;125.70;69.53;;;;;;;;;;5027636;28;20025;-74
2022/03/25 07:54:36;;;;;;;117.00;65.63;;;;;;;;;;5025036;28;20150;-73
2022/03/25 07:57:03;;;;;;;118.00;65.28;;;;;;;;;;5023377;28;20029;-74
2022/03/25 07:59:29;;;;;;;114.40;64.57;;;;;;;;;;5027859;28;20044;-75
2022/03/25 08:01:56;;;;;;;115.10;63.95;;;;;;;;;;5028403;28;20030;-75
2022/03/25 08:04:24;;;;;;;121.72;63.42;;;;;;;;;;5028702;28;20033;-74
2022/03/25 08:06:53;;;;;;;113.55;61.95;;;;;;;;;;5027842;28;20051;-75
2022/03/25 08:09:19;;;;;;;111.65;63.22;;;;;;;;;;5026978;28;20492;-74
2022/03/25 08:11:48;;;;;;;110.30;63.20;;;;;;;;;;5027932;28;20052;-74
2022/03/25 08:14:15;;;;;;;105.43;60.95;;;;;;;;;;5024618;28;20109;-75
2022/03/25 08:16:45;;;;;;;113.65;58.30;;;;;;;;;;5022912;28;20073;-75
2022/03/25 08:19:12;;;;;;;108.07;60.85;;;;;;;;;;5022472;28;20025;-75
2022/03/25 08:21:38;;;;;;;110.15;60.78;;;;;;;;;;5026067;28;20033;-75
2022/03/25 08:29:35;;;;;;;100.35;58.30;;;;;;;;;;5027768;28;20068;-76
2022/03/25 08:32:02;;;;;;;107.20;61.25;;;;;;;;;;5027699;28;20112;-77
2022/03/25 08:34:28;;;;;;;103.75;58.65;;;;;;;;;;5028076;28;20029;-76
2022/03/25 08:36:54;;;;;;;94.93;58.40;;;;;;;;;;5018296;28;20489;-75
2022/03/25 08:39:22;;;;;;;107.32;57.22;;;;;;;;;;5028685;28;20030;-76
2022/03/25 08:41:49;;;;;;;93.82;57.15;;;;;;;;;;5032053;28;20026;-75
2022/03/25 08:44:15;;;;;;;95.22;56.13;;;;;;;;;;5031801;28;20043;-75
2022/03/25 08:46:41;;;;;;;98.75;57.65;;;;;;;;;;5031575;28;20045;-73
2022/03/25 08:49:10;;;;;;;93.38;56.92;;;;;;;;;;5031155;28;20036;-73
2022/03/25 08:51:36;;;;;;;99.85;56.72;;;;;;;;;;5024135;28;20038;-75
2022/03/25 08:54:02;;;;;;;93.88;53.42;;;;;;;;;;5009392;28;20092;-74
2022/03/25 08:56:28;;;;;;;101.90;56.92;;;;;;;;;;5031848;28;20064;-75
2022/03/25 08:58:58;;;;;;;95.93;55.47;;;;;;;;;;5030768;28;20039;-75
2022/03/25 09:01:24;;;;;;;83.65;52.40;;;;;;;;;;5031309;28;20021;-75
2022/03/25 09:03:50;;;;;;;85.55;53.15;;;;;;;;;;5029363;28;20046;-76
2022/03/25 09:06:17;;;;;;;85.57;50.80;;;;;;;;;;5030785;28;20029;-76
2022/03/25 09:08:43;;;;;;;86.63;52.30;;;;;;;;;;5028662;28;20034;-74
2022/03/25 09:11:12;;;;;;;86.72;51.05;;;;;;;;;;5025963;28;20124;-75
2022/03/25 09:13:40;;;;;;;83.57;49.38;;;;;;;;;;5012903;28;20025;-76
2022/03/25 09:16:07;;;;;;;80.43;50.88;;;;;;;;;;5030123;28;20030;-75
2022/03/25 09:18:33;;;;;;;84.07;49.55;;;;;;;;;;5029474;28;20061;-75
2022/03/25 09:20:59;;;;;;;85.10;49.22;;;;;;;;;;5029943;28;20055;-74
2022/03/25 09:23:25;;;;;;;89.95;50.35;;;;;;;;;;5026770;28;20029;-74
2022/03/25 09:25:51;;;;;;;84.70;50.28;;;;;;;;;;5029359;28;20088;-75
2022/03/25 09:28:17;;;;;;;83.13;48.67;;;;;;;;;;5028667;28;20060;-76
2022/03/25 09:30:45;;;;;;;74.72;48.35;;;;;;;;;;5030654;28;20029;-74
2022/03/25 09:33:11;;;;;;;86.55;47.75;;;;;;;;;;5029061;28;20045;-75
2022/03/25 09:35:38;;;;;;;84.90;48.90;;;;;;;;;;5029618;28;20053;-75
2022/03/25 09:38:04;;;;;;;79.35;46.97;;;;;;;;;;5027283;28;20108;-75
2022/03/25 09:40:30;;;;;;;71.85;42.70;;;;;;;;;;5029032;28;20491;-75
2022/03/25 09:42:57;;;;;;;67.68;39.90;;;;;;;;;;5029792;28;20148;-75
2022/03/25 09:45:24;;;;;;;61.95;36.60;;;;;;;;;;5028708;28;20441;-75
2022/03/25 09:47:50;;;;;;;62.58;36.70;;;;;;;;;;5025803;28;20043;-75
2022/03/25 09:50:17;;;;;;;64.43;36.35;;;;;;;;;;5028867;28;20406;-74
2022/03/25 09:52:44;;;;;;;61.38;35.15;;;;;;;;;;5023222;28;20033;-75
2022/03/25 09:55:11;;;;;;;66.60;36.08;;;;;;;;;;5027572;28;20060;-74
2022/03/25 09:57:37;;;;;;;59.30;35.05;;;;;;;;;;5027581;28;20044;-75
2022/03/25 10:00:04;;;;;;;61.95;34.47;;;;;;;;;;5028138;28;20140;-75
2022/03/25 10:02:30;;;;;;;52.30;31.63;;;;;;;;;;5026962;28;20434;-74
2022/03/25 10:04:56;;;;;;;50.58;27.90;;;;;;;;;;5026128;28;20033;-74
2022/03/25 10:07:27;;;;;;;56.63;31.73;;;;;;;;;;5025786;28;20502;-76
2022/03/25 10:10:13;;;;;;;49.42;25.70;;;;;;;;;;5025096;28;20520;-76
2022/03/25 10:12:40;;;;;;;58.72;31.15;;;;;;;;;;5028671;28;20065;-74
2022/03/25 10:15:15;;;;;;;58.28;32.00;;;;;;;;;;5028424;28;20175;-75
2022/03/25 10:17:57;;;;;;;44.13;26.05;;;;;;;;;;5025373;28;20044;-75
2022/03/25 10:20:24;;;;;;;53.72;31.90;;;;;;;;;;5022111;28;20026;-75
2022/03/25 10:22:57;;;;;;;54.47;31.73;;;;;;;;;;5025237;28;20033;-75
2022/03/25 10:25:32;;;;;;;55.78;33.30;;;;;;;;;;5025544;28;20114;-75
2022/03/25 10:27:58;;;;;;;49.90;29.77;;;;;;;;;;5022946;28;20033;-75
2022/03/25 10:30:37;;;;;;;55.13;30.85;;;;;;;;;;5015611;28;20518;-75
2022/03/25 10:33:14;;;;;;;51.22;28.17;;;;;;;;;;5027308;28;20032;-75
2022/03/25 10:35:53;;;;;;;49.17;28.98;;;;;;;;;;5025570;28;20057;-75
2022/03/25 10:38:21;;;;;;;53.20;30.45;;;;;;;;;;5027446;28;20026;-76
2022/03/25 10:40:55;;;;;;;58.75;32.72;;;;;;;;;;5027893;28;20075;-74
2022/03/25 10:43:21;;;;;;;53.97;32.40;;;;;;;;;;5022712;28;20589;-75
2022/03/25 10:45:48;;;;;;;47.03;28.45;;;;;;;;;;5026561;28;20069;-75
2022/03/25 10:48:16;;;;;;;57.05;31.83;;;;;;;;;;5028211;28;20124;-75
2022/03/25 10:51:01;;;;;;;53.72;31.27;;;;;;;;;;5022501;28;20068;-76
2022/03/25 10:53:29;;;;;;;56.00;31.77;;;;;;;;;;5027345;28;20029;-76
2022/03/25 10:56:03;;;;;;;56.38;32.75;;;;;;;;;;5025331;28;20125;-73
2022/03/25 10:58:29;;;;;;;56.28;31.88;;;;;;;;;;5028716;28;20129;-75
2022/03/25 11:00:55;;;;;;;54.78;30.15;;;;;;;;;;5028430;28;20036;-75
2022/03/25 11:03:22;;;;;;;52.80;27.92;;;;;;;;;;5027323;28;20025;-75
2022/03/25 11:05:48;;;;;;;46.72;28.48;;;;;;;;;;5028153;28;20079;-75
2022/03/25 11:08:14;;;;;;;53.33;30.30;;;;;;;;;;5024419;28;20044;-74
2022/03/25 11:10:41;;;;;;;50.78;31.67;;;;;;;;;;5024392;28;20044;-75
2022/03/25 11:13:08;;;;;;;49.92;30.10;;;;;;;;;;5023347;28;20159;-75
2022/03/25 11:15:36;;;;;;;61.55;32.20;;;;;;;;;;5025434;28;20025;-75
2022/03/25 11:18:02;;;;;;;60.55;32.30;;;;;;;;;;5024584;28;20506;-75
2022/03/25 11:20:28;;;;;;;56.33;32.95;;;;;;;;;;5025890;28;20032;-75
2022/03/25 11:23:01;;;;;;;56.65;33.35;;;;;;;;;;5024194;28;20033;-75
2022/03/25 11:25:28;;;;;;;59.67;34.58;;;;;;;;;;5025978;28;20025;-74
2022/03/25 11:28:00;;;;;;;60.17;32.10;;;;;;;;;;5026596;28;20042;-75
2022/03/25 11:30:31;;;;;;;58.75;33.03;;;;;;;;;;5027155;28;20070;-74
2022/03/25 11:32:57;;;;;;;68.22;33.15;;;;;;;;;;5025905;28;20147;-75
2022/03/25 11:35:24;;;;;;;62.50;32.92;;;;;;;;;;5026547;28;20041;-75
2022/03/25 11:38:11;;;;;;;65.78;35.13;;;;;;;;;;5023745;28;20034;-76
2022/03/25 11:40:39;;;;;;;59.53;32.30;;;;;;;;;;5020142;28;20041;-75
2022/03/25 11:43:19;;;;;;;61.38;33.47;;;;;;;;;;5026238;28;20025;-75
2022/03/25 11:46:01;;;;;;;58.90;33.20;;;;;;;;;;5026210;28;20029;-75
2022/03/25 11:48:27;;;;;;;55.53;31.73;;;;;;;;;;5027728;28;20037;-75
2022/03/25 11:50:57;;;;;;;64.65;35.03;;;;;;;;;;5024834;28;20108;-75
2022/03/25 11:53:23;;;;;;;62.58;34.67;;;;;;;;;;5028593;28;20155;-74
2022/03/25 11:55:55;;;;;;;59.45;34.63;;;;;;;;;;5027658;28;20470;-74
2022/03/25 11:58:21;;;;;;;59.22;33.72;;;;;;;;;;5027862;28;20021;-75
2022/03/25 12:00:48;;;;;;;61.08;35.10;;;;;;;;;;5027093;28;20137;-74
2022/03/25 12:03:15;;;;;;;55.15;34.75;;;;;;;;;;5028272;28;20033;-75
2022/03/25 12:06:01;;;;;;;66.32;36.30;;;;;;;;;;5027203;28;20536;-75
2022/03/25 12:08:32;;;;;;;59.00;35.88;;;;;;;;;;5024232;28;20114;-76
2022/03/25 12:11:00;;;;;;;59.67;34.15;;;;;;;;;;5025507;28;20041;-75
2022/03/25 12:13:46;;;;;;;67.20;35.88;;;;;;;;;;5021029;28;20124;-75
2022/03/25 12:16:12;;;;;;;61.08;35.25;;;;;;;;;;5030012;28;20026;-76
2022/03/25 12:18:47;;;;;;;65.43;37.28;;;;;;;;;;5028166;28;20018;-76
2022/03/25 12:21:23;;;;;;;65.97;36.90;;;;;;;;;;5031133;28;20399;-76
2022/03/25 12:23:56;;;;;;;54.38;32.92;;;;;;;;;;5031003;28;20032;-73
2022/03/25 12:26:28;;;;;;;58.30;35.00;;;;;;;;;;5031277;28;20061;-75
2022/03/25 12:28:54;;;;;;;63.88;36.70;;;;;;;;;;5028487;28;20061;-75
2022/03/25 12:31:22;;;;;;;64.38;37.75;;;;;;;;;;5011929;28;20053;-75
2022/03/25 12:33:54;;;;;;;62.03;37.35;;;;;;;;;;5028787;28;20039;-76
2022/03/25 12:36:22;;;;;;;59.97;36.30;;;;;;;;;;5026439;28;20049;-76
2022/03/25 12:38:48;;;;;;;59.58;36.20;;;;;;;;;;5010667;28;20161;-74
2022/03/25 12:41:25;;;;;;;60.13;37.28;;;;;;;;;;5031650;28;20034;-75
2022/03/25 12:44:01;;;;;;;61.15;35.50;;;;;;;;;;5032083;28;20032;-75
2022/03/25 12:46:28;;;;;;;59.63;35.20;;;;;;;;;;5027533;28;20044;-77
2022/03/25 12:49:02;;;;;;;62.70;36.80;;;;;;;;;;5032087;28;20133;-75
2022/03/25 12:51:28;;;;;;;51.13;29.60;;;;;;;;;;5029407;28;20124;-75
2022/03/25 12:53:54;;;;;;;51.50;30.48;;;;;;;;;;5030788;28;20043;-76
2022/03/25 12:56:20;;;;;;;53.40;32.85;;;;;;;;;;5030417;28;20108;-74
2022/03/25 12:58:46;;;;;;;52.72;28.60;;;;;;;;;;5030779;28;20478;-77
2022/03/25 13:01:16;;;;;;;54.33;32.83;;;;;;;;;;5031599;28;20053;-76
2022/03/25 13:03:47;;;;;;;67.67;37.33;;;;;;;;;;5030503;28;20038;-76
2022/03/25 13:06:14;;;;;;;65.03;35.60;;;;;;;;;;5029430;28;20284;-75
2022/03/25 13:08:41;;;;;;;61.10;34.75;;;;;;;;;;5031785;28;20083;-75
2022/03/25 13:11:07;;;;;;;50.67;31.83;;;;;;;;;;5027682;28;20113;-74
2022/03/25 13:13:38;;;;;;;55.67;34.03;;;;;;;;;;5028473;28;20311;-77
2022/03/25 13:16:04;;;;;;;53.58;31.05;;;;;;;;;;5029463;28;20026;-75
2022/03/25 13:18:37;;;;;;;63.88;31.02;;;;;;;;;;5030243;28;20057;-75
2022/03/25 13:21:04;;;;;;;64.28;31.73;;;;;;;;;;5028090;28;20478;-74
2022/03/25 13:23:30;;;;;;;53.08;30.77;;;;;;;;;;5026792;28;20483;-77
2022/03/25 13:25:56;;;;;;;54.55;30.60;;;;;;;;;;5026154;28;20030;-77
2022/03/25 13:28:22;;;;;;;52.92;30.27;;;;;;;;;;5025521;28;20021;-75
2022/03/25 13:30:48;;;;;;;51.45;27.48;;;;;;;;;;5029362;28;20399;-77
2022/03/25 13:33:16;;;;;;;53.25;29.85;;;;;;;;;;5026843;28;20561;-74
2022/03/25 13:35:42;;;;;;;57.63;31.52;;;;;;;;;;5027181;28;20050;-75
2022/03/25 13:38:10;;;;;;;51.03;30.67;;;;;;;;;;5024573;28;20040;-79
2022/03/25 13:40:40;;;;;;;57.65;31.70;;;;;;;;;;5024375;28;20071;-76
2022/03/25 13:43:08;;;;;;;59.83;29.38;;;;;;;;;;5028634;28;20032;-76
2022/03/25 13:45:36;;;;;;;52.13;26.52;;;;;;;;;;5028909;28;20037;-75
2022/03/25 13:48:05;;;;;;;55.40;27.08;;;;;;;;;;5027430;28;20041;-74
2022/03/25 13:50:31;;;;;;;51.60;25.88;;;;;;;;;;5028735;28;20044;-76
2022/03/25 13:53:09;;;;;;;47.85;25.38;;;;;;;;;;5028510;28;20025;-76
2022/03/25 13:55:36;;;;;;;55.97;26.05;;;;;;;;;;5028269;28;20033;-77
2022/03/25 13:58:03;;;;;;;50.95;26.20;;;;;;;;;;5024580;28;20044;-75
2022/03/25 14:00:33;;;;;;;48.33;27.15;;;;;;;;;;5027005;28;20284;-75
2022/03/25 14:03:00;;;;;;;46.95;25.70;;;;;;;;;;5030194;28;20506;-77
2022/03/25 14:05:26;;;;;;;52.92;27.23;;;;;;;;;;5028957;28;20505;-76
2022/03/25 14:07:57;;;;;;;59.40;36.40;;;;;;;;;;5027445;28;20029;-77
2022/03/25 14:10:23;;;;;;;;;;;;;;;;;;5025750;28;20029;-75
2022/03/25 14:12:56;;;;;;;58.78;36.75;;;;;;;;;;5028243;28;20275;-77
2022/03/25 14:15:24;;;;;;;64.63;36.08;;;;;;;;;;5027163;28;20045;-74